createdAt,value
2018-06-17T00:01:37.051Z,8.70
2018-06-17T00:04:06.760Z,10.13
2018-06-17T00:06:36.416Z,10.00
2018-06-17T00:09:07.933Z,10.23
2018-06-17T00:11:37.563Z,10.87
2018-06-17T00:14:07.235Z,13.10
2018-06-17T00:16:36.859Z,11.37
2018-06-17T00:19:06.599Z,9.67
2018-06-17T00:21:36.289Z,9.63
2018-06-17T00:24:06.037Z,10.33
2018-06-17T00:26:35.652Z,8.80
2018-06-17T00:29:05.315Z,10.77
2018-06-17T00:31:34.931Z,13.90
2018-06-17T00:34:04.578Z,10.53
2018-06-17T00:36:34.252Z,7.60
2018-06-17T00:39:05.033Z,12.57
2018-06-17T00:41:34.695Z,10.53
2018-06-17T00:44:04.355Z,18.07
2018-06-17T00:46:33.960Z,9.83
2018-06-17T00:49:03.647Z,13.57
2018-06-17T00:51:33.296Z,10.40
2018-06-17T00:54:03.052Z,13.30
2018-06-17T00:56:32.684Z,11.87
2018-06-17T00:59:02.296Z,14.43
2018-06-17T01:01:31.952Z,12.77
2018-06-17T01:04:01.580Z,11.93
2018-06-17T01:06:31.326Z,14.53
2018-06-17T01:09:00.940Z,11.07
2018-06-17T01:11:30.563Z,9.53
2018-06-17T01:14:00.259Z,9.20
2018-06-17T01:16:29.904Z,8.53
2018-06-17T01:18:59.587Z,9.97
2018-06-17T01:21:29.275Z,10.53
2018-06-17T01:23:58.899Z,9.73
2018-06-17T01:26:28.511Z,11.17
2018-06-17T01:28:58.205Z,10.93
2018-06-17T01:31:27.864Z,11.53
2018-06-17T01:33:57.502Z,13.67
2018-06-17T01:36:27.164Z,11.60
2018-06-17T01:38:56.776Z,11.37
2018-06-17T01:41:26.395Z,10.33
2018-06-17T01:43:56.056Z,9.73
2018-06-17T01:46:25.689Z,14.97
2018-06-17T01:48:55.331Z,12.40
2018-06-17T01:51:24.985Z,8.80
2018-06-17T01:53:54.632Z,10.73
2018-06-17T01:56:24.304Z,12.13
2018-06-17T01:58:53.935Z,10.27
2018-06-17T02:01:23.599Z,15.80
2018-06-17T02:03:58.408Z,9.57
2018-06-17T02:06:33.120Z,10.40
2018-06-17T02:09:07.899Z,14.60
2018-06-17T02:11:40.548Z,15.03
2018-06-17T02:14:15.304Z,12.83
2018-06-17T02:16:44.954Z,15.37
2018-06-17T02:19:14.591Z,17.97
2018-06-17T02:21:44.263Z,15.40
2018-06-17T02:24:13.885Z,14.13
2018-06-17T02:26:43.548Z,15.50
2018-06-17T02:29:13.163Z,15.97
2018-06-17T02:31:42.804Z,15.57
2018-06-17T02:34:12.556Z,13.27
2018-06-17T02:36:42.166Z,14.07
2018-06-17T02:39:11.789Z,17.40
2018-06-17T02:41:41.460Z,15.73
2018-06-17T02:44:11.120Z,15.53
2018-06-17T02:46:45.895Z,17.43
2018-06-17T02:49:20.690Z,14.87
2018-06-17T02:51:55.464Z,18.30
2018-06-17T02:54:30.216Z,16.13
2018-06-17T02:56:59.916Z,14.87
2018-06-17T02:59:29.581Z,16.63
2018-06-17T03:01:59.273Z,18.63
2018-06-17T03:04:28.943Z,14.23
2018-06-17T03:06:58.679Z,14.63
2018-06-17T03:09:28.464Z,17.60
2018-06-17T03:11:58.136Z,16.73
2018-06-17T03:14:27.743Z,17.57
2018-06-17T03:16:57.440Z,14.80
2018-06-17T03:19:27.073Z,14.13
2018-06-17T03:21:56.713Z,15.70
2018-06-17T03:24:31.548Z,17.73
2018-06-17T03:27:06.340Z,15.13
2018-06-17T03:29:41.120Z,17.97
2018-06-17T03:32:15.876Z,15.83
2018-06-17T03:34:45.619Z,17.80
2018-06-17T03:37:15.260Z,20.17
2018-06-17T03:39:44.891Z,14.93
2018-06-17T03:42:14.556Z,18.00
2018-06-17T03:44:44.181Z,18.47
2018-06-17T03:47:13.815Z,18.03
2018-06-17T03:49:43.496Z,14.73
2018-06-17T03:52:13.130Z,17.23
2018-06-17T03:54:42.772Z,20.50
2018-06-17T03:57:12.457Z,19.20
2018-06-17T03:59:42.075Z,19.83
2018-06-17T04:02:11.688Z,20.80
2018-06-17T04:04:46.475Z,17.60
2018-06-17T04:07:16.099Z,20.33
2018-06-17T04:09:45.744Z,15.87
2018-06-17T04:12:15.495Z,20.03
2018-06-17T04:14:45.138Z,15.60
2018-06-17T04:17:15.596Z,19.37
2018-06-17T04:19:46.572Z,15.20
2018-06-17T04:22:16.256Z,19.30
2018-06-17T04:24:45.868Z,18.73
2018-06-17T04:27:15.523Z,18.03
2018-06-17T04:29:45.205Z,17.37
2018-06-17T04:32:14.855Z,22.47
2018-06-17T04:34:44.483Z,17.00
2018-06-17T04:37:14.146Z,18.80
2018-06-17T04:39:43.772Z,23.57
2018-06-17T04:42:13.416Z,20.50
2018-06-17T04:44:43.119Z,17.17
2018-06-17T04:47:12.768Z,22.40
2018-06-17T04:49:42.400Z,24.40
2018-06-17T04:52:12.072Z,18.17
2018-06-17T04:54:41.729Z,18.57
2018-06-17T04:57:11.389Z,20.60
2018-06-17T04:59:41.055Z,20.03
2018-06-17T05:02:10.679Z,20.37
2018-06-17T05:04:40.344Z,17.57
2018-06-17T05:07:10.216Z,20.00
2018-06-17T05:09:39.905Z,19.90
2018-06-17T05:12:09.544Z,16.60
2018-06-17T05:14:39.224Z,19.70
2018-06-17T05:17:08.959Z,19.20
2018-06-17T05:19:38.588Z,18.97
2018-06-17T05:22:08.256Z,17.50
2018-06-17T05:24:37.899Z,20.17
2018-06-17T05:27:07.536Z,20.70
2018-06-17T05:29:37.305Z,20.63
2018-06-17T05:32:07.047Z,22.03
2018-06-17T05:34:36.712Z,19.53
2018-06-17T05:37:06.392Z,20.10
2018-06-17T05:39:36.052Z,18.83
2018-06-17T05:42:05.732Z,22.33
2018-06-17T05:44:35.424Z,17.93
2018-06-17T05:47:05.173Z,17.37
2018-06-17T05:49:34.815Z,18.97
2018-06-17T05:52:04.533Z,19.90
2018-06-17T05:54:34.179Z,15.00
2018-06-17T05:57:03.807Z,17.17
2018-06-17T05:59:33.507Z,18.93
2018-06-17T06:02:03.163Z,15.73
2018-06-17T06:04:32.848Z,12.87
2018-06-17T06:07:02.536Z,13.63
2018-06-17T06:09:32.555Z,14.17
2018-06-17T06:12:02.237Z,14.10
2018-06-17T06:14:31.888Z,11.07
2018-06-17T06:17:01.580Z,14.33
2018-06-17T06:19:31.276Z,11.93
2018-06-17T06:22:00.940Z,10.30
2018-06-17T06:24:30.572Z,11.20
2018-06-17T06:27:00.279Z,10.93
2018-06-17T06:29:29.899Z,10.27
2018-06-17T06:31:59.524Z,10.27
2018-06-17T06:34:29.196Z,10.80
2018-06-17T06:36:58.872Z,12.60
2018-06-17T06:39:28.522Z,7.17
2018-06-17T06:41:58.227Z,9.37
2018-06-17T06:44:27.869Z,6.80
2018-06-17T06:46:57.504Z,9.80
2018-06-17T06:49:27.173Z,6.83
2018-06-17T06:51:56.825Z,7.77
2018-06-17T06:54:26.513Z,9.07
2018-06-17T06:56:56.132Z,3.80
2018-06-17T06:59:25.785Z,5.73
2018-06-17T07:02:06.650Z,3.13
2018-06-17T07:04:47.360Z,2.73
2018-06-17T07:07:28.132Z,3.57
2018-06-17T07:10:09.000Z,4.00
2018-06-17T07:12:38.706Z,4.30
2018-06-17T07:15:08.348Z,4.97
2018-06-17T07:17:49.212Z,2.60
2018-06-17T07:20:18.894Z,3.53
2018-06-17T07:22:48.581Z,3.17
2018-06-17T07:26:31.334Z,3.63
2018-06-17T07:29:12.347Z,2.03
2018-06-17T07:31:42.009Z,2.97
2018-06-17T07:34:12.597Z,5.73
2018-06-17T07:36:42.588Z,1.73
2018-06-17T07:41:26.291Z,2.53
2018-06-17T07:43:56.021Z,3.77
2018-06-17T07:46:25.662Z,1.83
2018-06-17T07:49:35.009Z,1.70
2018-06-17T07:52:16.760Z,4.37
2018-06-17T07:54:46.828Z,6.90
2018-06-17T07:57:17.848Z,2.37
2018-06-17T07:59:47.540Z,2.97
2018-06-17T08:02:17.464Z,2.10
2018-06-17T08:04:47.301Z,2.43
2018-06-17T08:07:16.924Z,3.03
2018-06-17T08:09:46.588Z,1.60
2018-06-17T08:12:16.569Z,3.37
2018-06-17T08:14:46.824Z,2.20
2018-06-17T08:17:16.513Z,3.97
2018-06-17T08:19:47.028Z,2.53
2018-06-17T08:22:16.691Z,2.97
2018-06-17T08:24:46.353Z,2.93
2018-06-17T08:27:15.987Z,2.23
2018-06-17T08:29:45.643Z,1.30
2018-06-17T08:32:15.269Z,3.43
2018-06-17T08:34:44.888Z,2.30
2018-06-17T08:37:14.572Z,2.10
2018-06-17T08:39:44.220Z,2.57
2018-06-17T08:42:13.852Z,1.93
2018-06-17T08:44:43.543Z,2.20
2018-06-17T08:47:13.171Z,2.77
2018-06-17T08:49:42.799Z,1.60
2018-06-17T08:52:12.467Z,3.13
2018-06-17T08:54:42.091Z,3.27
2018-06-17T08:57:11.753Z,3.47
2018-06-17T08:59:41.409Z,1.93
2018-06-17T09:02:11.045Z,3.20
2018-06-17T09:04:40.732Z,2.10
2018-06-17T09:07:10.412Z,2.73
2018-06-17T09:09:40.060Z,0.90
2018-06-17T09:12:09.694Z,4.27
2018-06-17T09:14:39.384Z,1.30
2018-06-17T09:17:09.033Z,2.30
2018-06-17T09:19:38.672Z,3.13
2018-06-17T09:22:08.328Z,1.57
2018-06-17T09:24:37.943Z,1.90
2018-06-17T09:27:07.577Z,2.10
2018-06-17T09:29:37.241Z,2.90
2018-06-17T09:32:07.353Z,1.77
2018-06-17T09:34:36.911Z,2.40
2018-06-17T09:37:06.604Z,3.30
2018-06-17T09:39:36.252Z,1.20
2018-06-17T09:42:06.135Z,2.80
2018-06-17T09:44:35.770Z,1.30
2018-06-17T09:47:05.632Z,1.57
2018-06-17T09:49:35.324Z,2.23
2018-06-17T09:52:04.967Z,1.23
2018-06-17T09:54:34.584Z,3.77
2018-06-17T09:57:04.292Z,2.63
2018-06-17T09:59:33.921Z,3.53
2018-06-17T10:02:03.568Z,2.30
2018-06-17T10:04:33.327Z,1.63
2018-06-17T10:07:02.959Z,3.40
2018-06-17T10:09:33.864Z,2.40
2018-06-17T10:12:03.548Z,1.20
2018-06-17T10:14:33.187Z,1.60
2018-06-17T10:17:02.915Z,1.30
2018-06-17T10:19:32.536Z,6.53
2018-06-17T10:22:02.225Z,1.73
2018-06-17T10:24:31.835Z,1.33
2018-06-17T10:27:01.468Z,1.80
2018-06-17T10:29:31.219Z,1.77
2018-06-17T10:32:00.829Z,1.23
2018-06-17T10:34:30.424Z,2.23
2018-06-17T10:37:00.113Z,3.17
2018-06-17T10:39:29.741Z,2.05
2018-06-17T10:41:59.376Z,3.98
2018-06-17T10:44:29.020Z,2.50
2018-06-17T10:46:58.646Z,3.25
2018-06-17T10:49:28.258Z,3.58
2018-06-17T10:51:57.963Z,4.00
2018-06-17T10:54:27.567Z,1.90
2018-06-17T10:56:57.265Z,2.83
2018-06-17T10:59:26.915Z,3.77
2018-06-17T11:01:56.549Z,1.80
2018-06-17T11:04:26.207Z,3.83
2018-06-17T11:06:55.820Z,2.95
2018-06-17T11:09:25.483Z,3.20
2018-06-17T11:11:55.084Z,2.72
2018-06-17T11:14:24.685Z,4.03
2018-06-17T11:16:54.369Z,2.35
2018-06-17T11:19:23.980Z,2.67
2018-06-17T11:21:53.596Z,3.37
2018-06-17T11:24:23.279Z,2.65
2018-06-17T11:26:52.888Z,7.35
2018-06-17T11:29:22.496Z,3.77
2018-06-17T11:31:52.136Z,3.92
2018-06-17T11:34:21.748Z,4.13
2018-06-17T11:36:51.360Z,3.67
2018-06-17T11:39:21.416Z,3.57
2018-06-17T11:41:51.040Z,3.23
2018-06-17T11:44:20.928Z,3.67
2018-06-17T11:46:50.590Z,2.53
2018-06-17T11:49:20.247Z,3.00
2018-06-17T11:51:49.866Z,3.43
2018-06-17T11:54:19.596Z,2.40
2018-06-17T11:56:49.236Z,2.72
2018-06-17T11:59:19.108Z,2.65
2018-06-17T12:01:48.723Z,3.70
2018-06-17T12:04:18.437Z,5.50
2018-06-17T12:06:48.089Z,3.50
2018-06-17T12:09:17.704Z,4.50
2018-06-17T12:11:47.437Z,5.67
2018-06-17T12:14:17.072Z,3.70
2018-06-17T12:16:46.680Z,4.58
2018-06-17T12:19:16.451Z,3.17
2018-06-17T12:21:46.145Z,3.90
2018-06-17T12:24:15.798Z,4.75
2018-06-17T12:26:45.507Z,4.42
2018-06-17T12:29:15.136Z,5.28
2018-06-17T12:31:44.816Z,4.85
2018-06-17T12:34:14.468Z,5.42
2018-06-17T12:36:44.080Z,3.33
2018-06-17T12:39:14.346Z,3.80
2018-06-17T12:41:43.957Z,4.28
2018-06-17T12:44:13.576Z,4.33
2018-06-17T12:46:43.263Z,3.92
2018-06-17T12:49:12.885Z,3.20
2018-06-17T12:51:42.500Z,4.12
2018-06-17T12:54:12.163Z,5.37
2018-06-17T12:56:41.769Z,7.58
2018-06-17T12:59:11.443Z,3.83
2018-06-17T13:01:41.111Z,3.83
2018-06-17T13:04:10.735Z,3.62
2018-06-17T13:06:40.345Z,3.90
2018-06-17T13:09:11.520Z,3.20
2018-06-17T13:11:41.204Z,5.60
2018-06-17T13:14:10.813Z,2.47
2018-06-17T13:16:40.493Z,3.35
2018-06-17T13:19:10.120Z,3.87
2018-06-17T13:21:39.784Z,2.05
2018-06-17T13:24:09.465Z,3.83
2018-06-17T13:26:39.123Z,3.67
2018-06-17T13:29:08.724Z,3.27
2018-06-17T13:31:38.424Z,3.58
2018-06-17T13:34:08.063Z,2.83
2018-06-17T13:36:37.687Z,5.25
2018-06-17T13:39:08.609Z,5.90
2018-06-17T13:41:38.471Z,3.35
2018-06-17T13:44:08.356Z,4.53
2018-06-17T13:46:37.956Z,3.02
2018-06-17T13:49:07.575Z,3.72
2018-06-17T13:51:37.258Z,5.75
2018-06-17T13:54:06.964Z,2.52
2018-06-17T13:56:36.567Z,6.45
2018-06-17T13:59:06.231Z,2.33
2018-06-17T14:01:35.868Z,3.30
2018-06-17T14:04:05.492Z,4.67
2018-06-17T14:06:35.171Z,3.33
2018-06-17T14:09:07.947Z,3.98
2018-06-17T14:11:37.600Z,4.78
2018-06-17T14:14:07.240Z,4.12
2018-06-17T14:16:36.892Z,5.33
2018-06-17T14:19:06.561Z,5.12
2018-06-17T14:21:36.175Z,8.45
2018-06-17T14:24:05.815Z,4.22
2018-06-17T14:26:35.475Z,4.15
2018-06-17T14:29:05.184Z,4.17
2018-06-17T14:31:34.791Z,5.97
2018-06-17T14:34:04.489Z,10.28
2018-06-17T14:36:34.080Z,7.97
2018-06-17T14:39:04.913Z,4.85
2018-06-17T14:41:34.528Z,9.90
2018-06-17T14:44:09.531Z,6.05
2018-06-17T14:46:44.193Z,4.47
2018-06-17T14:49:18.968Z,8.08
2018-06-17T14:51:51.800Z,3.27
2018-06-17T14:54:21.461Z,4.47
2018-06-17T14:56:51.073Z,3.87
2018-06-17T14:59:20.683Z,5.00
2018-06-17T15:01:50.377Z,4.85
2018-06-17T15:04:20.008Z,5.60
2018-06-17T15:06:49.620Z,7.50
2018-06-17T15:09:19.343Z,4.90
2018-06-17T15:11:48.972Z,6.92
2018-06-17T15:14:18.597Z,5.37
2018-06-17T15:16:48.284Z,6.37
2018-06-17T15:19:17.896Z,6.47
2018-06-17T15:21:47.504Z,4.33
2018-06-17T15:24:17.215Z,7.70
2018-06-17T15:26:46.819Z,7.75
2018-06-17T15:29:16.420Z,6.40
2018-06-17T15:31:51.184Z,5.62
2018-06-17T15:34:25.837Z,8.45
2018-06-17T15:37:00.749Z,4.78
2018-06-17T15:39:35.411Z,9.10
2018-06-17T15:42:05.154Z,5.10
2018-06-17T15:44:34.764Z,6.70
2018-06-17T15:47:04.392Z,4.10
2018-06-17T15:49:34.056Z,7.73
2018-06-17T15:52:03.678Z,3.13
2018-06-17T15:54:33.296Z,6.83
2018-06-17T15:57:02.975Z,7.23
2018-06-17T15:59:32.615Z,5.27
2018-06-17T16:02:02.296Z,7.87
2018-06-17T16:04:31.896Z,5.03
2018-06-17T16:07:01.507Z,6.57
2018-06-17T16:09:31.219Z,5.53
2018-06-17T16:12:06.471Z,5.53
2018-06-17T16:14:41.285Z,6.53
2018-06-17T16:17:16.112Z,5.43
2018-06-17T16:19:50.932Z,3.40
2018-06-17T16:22:20.640Z,4.97
2018-06-17T16:24:50.516Z,5.73
2018-06-17T16:27:20.203Z,5.23
2018-06-17T16:29:49.823Z,6.73
2018-06-17T16:32:19.660Z,5.40
2018-06-17T16:34:49.303Z,4.07
2018-06-17T16:37:18.953Z,7.00
2018-06-17T16:39:48.653Z,4.73
2018-06-17T16:42:18.275Z,5.10
2018-06-17T16:44:47.887Z,7.80
2018-06-17T16:47:17.596Z,4.17
2018-06-17T16:49:47.224Z,3.53
2018-06-17T16:52:22.004Z,8.80
2018-06-17T16:54:56.683Z,4.20
2018-06-17T16:57:31.443Z,7.63
2018-06-17T17:00:05.877Z,6.33
2018-06-17T17:02:35.533Z,5.50
2018-06-17T17:05:05.173Z,4.23
2018-06-17T17:07:34.811Z,4.23
2018-06-17T17:10:04.568Z,6.87
2018-06-17T17:12:34.233Z,5.03
2018-06-17T17:15:03.981Z,8.57
2018-06-17T17:17:33.649Z,6.63
2018-06-17T17:20:03.292Z,5.20
2018-06-17T17:22:33.024Z,5.57
2018-06-17T17:25:02.678Z,5.23
2018-06-17T17:27:32.342Z,4.67
2018-06-17T17:30:02.016Z,6.37
2018-06-17T17:33:34.764Z,4.43
2018-06-17T17:36:09.556Z,6.20
2018-06-17T17:38:44.335Z,6.00
2018-06-17T17:41:14.040Z,6.47
2018-06-17T17:43:43.668Z,4.90
2018-06-17T17:46:18.532Z,4.73
2018-06-17T17:48:48.189Z,6.83
2018-06-17T17:51:17.832Z,5.03
2018-06-17T17:53:47.508Z,9.07
2018-06-17T17:56:17.145Z,5.60
2018-06-17T17:58:46.759Z,5.47
2018-06-17T18:01:16.473Z,4.57
2018-06-17T18:03:46.104Z,8.33
2018-06-17T18:06:15.732Z,5.20
2018-06-17T18:08:45.393Z,6.03
2018-06-17T18:11:15.098Z,10.77
2018-06-17T18:13:44.711Z,5.83
2018-06-17T18:16:14.393Z,5.17
2018-06-17T18:18:44.039Z,5.43
2018-06-17T18:21:13.680Z,4.50
2018-06-17T18:23:43.389Z,8.23
2018-06-17T18:26:18.049Z,5.23
2018-06-17T18:28:52.943Z,5.20
2018-06-17T18:31:22.565Z,7.37
2018-06-17T18:33:57.340Z,5.87
2018-06-17T18:36:26.940Z,8.17
2018-06-17T18:38:56.584Z,5.77
2018-06-17T18:41:26.276Z,8.30
2018-06-17T18:43:55.948Z,7.47
2018-06-17T18:46:25.571Z,7.60
2018-06-17T18:48:55.299Z,5.97
2018-06-17T18:51:24.924Z,7.10
2018-06-17T18:53:54.552Z,9.50
2018-06-17T18:56:24.220Z,5.53
2018-06-17T18:58:53.863Z,6.83
2018-06-17T19:01:23.576Z,46.40
2018-06-17T19:03:53.324Z,7.20
2018-06-17T19:06:22.975Z,11.97
2018-06-17T19:08:57.916Z,6.70
2018-06-17T19:11:32.679Z,6.50
2018-06-17T19:14:07.438Z,7.80
2018-06-17T19:16:42.236Z,7.37
2018-06-17T19:19:12.008Z,5.67
2018-06-17T19:21:41.627Z,6.67
2018-06-17T19:24:11.272Z,8.00
2018-06-17T19:26:40.992Z,6.07
2018-06-17T19:29:10.663Z,6.30
2018-06-17T19:31:40.383Z,6.90
2018-06-17T19:34:10.020Z,5.13
2018-06-17T19:36:39.656Z,5.47
2018-06-17T19:39:10.702Z,6.00
2018-06-17T19:41:40.371Z,7.00
2018-06-17T19:44:10.071Z,6.30
2018-06-17T19:46:39.704Z,6.10
2018-06-17T19:49:09.419Z,5.93
2018-06-17T19:51:44.092Z,7.80
2018-06-17T19:54:18.780Z,9.93
2018-06-17T19:56:53.552Z,6.83
2018-06-17T19:59:28.356Z,4.53
2018-06-17T20:01:58.023Z,6.53
2018-06-17T20:04:27.679Z,5.53
2018-06-17T20:06:57.303Z,4.13
2018-06-17T20:09:27.031Z,8.43
2018-06-17T20:11:56.733Z,5.73
2018-06-17T20:14:26.367Z,9.33
2018-06-17T20:16:56.093Z,7.43
2018-06-17T20:19:25.751Z,8.57
2018-06-17T20:21:55.381Z,7.90
2018-06-17T20:24:25.151Z,8.87
2018-06-17T20:26:55.326Z,6.20
2018-06-17T20:29:24.988Z,5.60
2018-06-17T20:31:59.736Z,5.20
2018-06-17T20:34:34.552Z,5.70
2018-06-17T20:37:09.335Z,6.53
2018-06-17T20:39:43.999Z,4.53
2018-06-17T20:42:18.954Z,6.60
2018-06-17T20:44:48.561Z,7.33
2018-06-17T20:47:18.259Z,6.63
2018-06-17T20:49:47.896Z,8.97
2018-06-17T20:52:17.524Z,5.13
2018-06-17T20:54:47.288Z,5.37
2018-06-17T20:57:16.935Z,4.93
2018-06-17T20:59:46.668Z,6.80
2018-06-17T21:02:16.348Z,4.63
2018-06-17T21:04:46.040Z,3.80
2018-06-17T21:07:15.663Z,5.87
2018-06-17T21:09:45.406Z,3.33
2018-06-17T21:12:14.992Z,6.40
2018-06-17T21:14:44.636Z,5.53
2018-06-17T21:17:14.326Z,7.43
2018-06-17T21:19:49.123Z,4.17
2018-06-17T21:22:23.996Z,4.57
2018-06-17T21:24:58.879Z,6.10
2018-06-17T21:27:33.643Z,6.03
2018-06-17T21:30:03.282Z,6.57
2018-06-17T21:32:32.903Z,3.70
2018-06-17T21:35:02.613Z,4.80
2018-06-17T21:37:32.248Z,7.97
2018-06-17T21:40:01.880Z,4.80
2018-06-17T21:42:31.575Z,5.83
2018-06-17T21:45:01.207Z,7.20
2018-06-17T21:47:30.819Z,7.03
2018-06-17T21:50:00.484Z,6.87
2018-06-17T21:52:30.107Z,7.77
2018-06-17T21:54:59.727Z,4.13
2018-06-17T21:57:29.396Z,6.10
2018-06-17T21:59:59.031Z,6.40
2018-06-17T22:02:28.659Z,7.27
2018-06-17T22:04:58.328Z,5.03
2018-06-17T22:07:27.945Z,4.33
2018-06-17T22:10:02.796Z,6.40
2018-06-17T22:12:37.621Z,7.43
2018-06-17T22:15:12.628Z,6.57
2018-06-17T22:17:47.376Z,5.73
2018-06-17T22:20:17.041Z,6.70
2018-06-17T22:22:46.687Z,5.30
2018-06-17T22:25:16.579Z,5.07
2018-06-17T22:27:46.252Z,4.77
2018-06-17T22:30:15.932Z,4.97
2018-06-17T22:32:45.591Z,5.13
2018-06-17T22:35:15.243Z,8.63
2018-06-17T22:37:44.888Z,7.17
2018-06-17T22:40:14.771Z,6.00
2018-06-17T22:42:44.547Z,5.13
2018-06-17T22:45:14.264Z,5.97
2018-06-17T22:47:48.996Z,6.13
2018-06-17T22:50:18.652Z,5.60
2018-06-17T22:52:59.247Z,5.80
2018-06-17T22:55:28.948Z,6.70
2018-06-17T22:58:03.788Z,5.37
2018-06-17T23:00:38.713Z,5.93
2018-06-17T23:03:13.412Z,6.00
2018-06-17T23:05:48.157Z,7.23
2018-06-17T23:08:22.976Z,6.07
2018-06-17T23:10:52.912Z,5.80
2018-06-17T23:13:22.532Z,7.73
2018-06-17T23:15:52.303Z,6.77
2018-06-17T23:18:21.929Z,9.67
2018-06-17T23:20:51.571Z,7.50
2018-06-17T23:23:21.221Z,8.67
2018-06-17T23:25:50.836Z,7.30
2018-06-17T23:28:20.481Z,6.70
2018-06-17T23:30:50.167Z,5.83
2018-06-17T23:33:19.787Z,5.00
2018-06-17T23:35:49.395Z,7.43
2018-06-17T23:38:19.061Z,9.97
2018-06-17T23:40:48.756Z,7.50
2018-06-17T23:43:18.452Z,9.23
2018-06-17T23:45:53.263Z,7.17
2018-06-17T23:48:28.144Z,7.60
2018-06-17T23:51:02.988Z,9.43
2018-06-17T23:53:37.704Z,8.67
2018-06-17T23:56:07.649Z,6.53
2018-06-17T23:58:38.387Z,7.87
